Time;durP1;ratioP1;P1;durP2;ratioP2;P2;SDS_P1;SDS_P2;PMS_P1;PMS_P2;Temp;Humidity;BMP_temperature;BMP_pressure;BME280_temperature;BME280_humidity;BME280_pressure;Samples;Min_cycle;Max_cycle;Signal;HPM_P1;HPM_P2
2021/10/10 00:01:24;;;;;;;6.18;1.52;;;;;;;15.92;100.00;101207.41;6338508;22;20022;-48
2021/10/10 00:04:27;;;;;;;9.95;2.13;;;;;;;15.91;100.00;101200.25;6337310;22;20060;-49
2021/10/10 00:07:31;;;;;;;6.15;1.85;;;;;;;15.88;100.00;101200.41;6337575;22;20116;-49
2021/10/10 00:10:34;;;;;;;7.43;1.05;;;;;;;15.88;100.00;101197.59;6337966;22;20049;-49
2021/10/10 00:13:37;;;;;;;6.32;2.08;;;;;;;15.86;100.00;101197.31;6337583;22;20025;-49
2021/10/10 00:16:40;;;;;;;6.00;1.42;;;;;;;15.86;100.00;101198.09;6337549;22;20347;-49
2021/10/10 00:19:43;;;;;;;7.85;1.40;;;;;;;15.87;100.00;101198.88;6337465;22;20026;-48
2021/10/10 00:22:46;;;;;;;5.68;0.98;;;;;;;15.88;100.00;101206.03;6337977;22;20335;-48
2021/10/10 00:25:49;;;;;;;10.32;2.20;;;;;;;15.93;100.00;101211.00;6338048;22;20485;-48
2021/10/10 00:28:52;;;;;;;12.07;2.55;;;;;;;15.90;100.00;101209.91;6337379;22;20026;-49
2021/10/10 00:31:58;;;;;;;8.13;2.38;;;;;;;15.90;100.00;101206.34;6337245;22;20101;-48
2021/10/10 00:35:02;;;;;;;2.28;1.25;;;;;;;15.88;100.00;101211.66;6336976;22;20057;-48
2021/10/10 00:38:05;;;;;;;3.67;1.27;;;;;;;15.85;100.00;101212.63;6337931;22;20091;-48
2021/10/10 00:41:09;;;;;;;5.70;1.75;;;;;;;15.89;100.00;101204.78;6337805;22;20029;-48
2021/10/10 00:44:12;;;;;;;7.35;1.67;;;;;;;15.89;100.00;101207.59;6337346;22;20514;-48
2021/10/10 00:47:16;;;;;;;1.70;0.90;;;;;;;15.92;100.00;101206.63;6337605;22;20144;-48
2021/10/10 00:50:19;;;;;;;7.80;1.17;;;;;;;15.90;100.00;101206.34;6337480;22;20025;-48
2021/10/10 00:53:23;;;;;;;5.50;1.38;;;;;;;15.92;100.00;101215.06;6337332;22;20072;-48
2021/10/10 00:56:27;;;;;;;4.63;1.80;;;;;;;15.87;100.00;101205.25;6337548;22;20108;-48
2021/10/10 00:59:34;;;;;;;3.78;1.83;;;;;;;15.90;100.00;101203.53;6337353;22;20025;-48
2021/10/10 01:02:40;;;;;;;8.43;2.72;;;;;;;15.86;100.00;101214.94;6337171;22;20047;-48
2021/10/10 01:05:43;;;;;;;6.15;1.50;;;;;;;15.87;100.00;101215.75;6336963;22;20021;-48
2021/10/10 01:08:47;;;;;;;5.05;1.92;;;;;;;15.86;100.00;101209.34;6337294;22;20037;-48
2021/10/10 01:11:50;;;;;;;5.38;1.58;;;;;;;15.83;100.00;101213.09;6337052;22;20038;-48
2021/10/10 01:14:53;;;;;;;5.70;2.45;;;;;;;15.79;100.00;101208.91;6337161;22;20355;-48
2021/10/10 01:17:57;;;;;;;8.02;1.55;;;;;;;15.77;100.00;101211.41;6337246;22;20126;-48
2021/10/10 01:21:00;;;;;;;8.23;2.60;;;;;;;15.80;100.00;101207.66;6337030;22;20065;-48
2021/10/10 01:24:03;;;;;;;4.22;1.98;;;;;;;15.90;100.00;101203.53;6336984;22;20021;-48
2021/10/10 01:27:06;;;;;;;5.93;2.35;;;;;;;15.82;100.00;101202.34;6337348;22;20056;-48
2021/10/10 01:30:09;;;;;;;11.98;2.50;;;;;;;15.79;100.00;101203.28;6337183;22;20033;-48
2021/10/10 01:33:15;;;;;;;7.97;3.15;;;;;;;15.80;100.00;101200.03;6337104;22;20025;-48
2021/10/10 01:36:19;;;;;;;10.68;3.00;;;;;;;15.83;100.00;101209.53;6336835;22;20033;-50
2021/10/10 01:39:22;;;;;;;9.45;2.10;;;;;;;15.84;100.00;101206.22;6337111;22;20029;-50
2021/10/10 01:42:25;;;;;;;10.82;2.65;;;;;;;15.84;100.00;101200.59;6337099;22;20026;-50
2021/10/10 01:45:28;;;;;;;6.68;1.92;;;;;;;15.89;100.00;101202.75;6337392;22;20041;-50
2021/10/10 01:48:31;;;;;;;7.95;2.17;;;;;;;15.85;100.00;101192.97;6338156;22;20037;-51
2021/10/10 01:51:35;;;;;;;4.00;1.45;;;;;;;15.86;100.00;101202.94;6339540;22;20025;-50
2021/10/10 01:54:38;;;;;;;5.72;1.35;;;;;;;15.88;100.00;101194.78;6339069;22;20336;-51
2021/10/10 01:57:41;;;;;;;2.35;1.10;;;;;;;15.86;100.00;101197.31;6338892;22;20579;-50
2021/10/10 02:00:44;;;;;;;4.82;0.88;;;;;;;15.83;100.00;101193.44;6338386;22;20517;-50
2021/10/10 02:03:47;;;;;;;5.68;1.77;;;;;;;15.83;100.00;101187.81;6338166;22;20064;-51
2021/10/10 02:06:50;;;;;;;4.53;1.17;;;;;;;15.83;100.00;101187.06;6337862;22;20026;-50
2021/10/10 02:09:53;;;;;;;6.65;1.50;;;;;;;15.82;100.00;101194.69;6338674;22;20029;-51
2021/10/10 02:12:56;;;;;;;5.00;1.95;;;;;;;15.82;100.00;101197.50;6338648;22;20022;-50
2021/10/10 02:15:59;;;;;;;7.20;1.13;;;;;;;15.78;100.00;101196.13;6338571;22;20030;-50
2021/10/10 02:19:01;;;;;;;5.65;1.40;;;;;;;15.79;100.00;101200.47;6339043;22;20128;-50
2021/10/10 02:22:04;;;;;;;8.60;1.85;;;;;;;15.79;100.00;101195.66;6339022;22;20025;-50
2021/10/10 02:25:08;;;;;;;4.97;1.98;;;;;;;15.78;100.00;101193.31;6338951;22;20022;-50
2021/10/10 02:28:11;;;;;;;8.27;1.67;;;;;;;15.79;100.00;101203.28;6338492;22;20357;-50
2021/10/10 02:31:14;;;;;;;4.88;1.25;;;;;;;15.75;100.00;101197.84;6337956;22;20072;-50
2021/10/10 02:34:18;;;;;;;2.35;0.90;;;;;;;15.72;100.00;101203.66;6338268;22;20030;-51
2021/10/10 02:37:21;;;;;;;10.45;2.17;;;;;;;15.70;100.00;101198.50;6338316;22;20025;-50
2021/10/10 02:40:24;;;;;;;4.22;1.05;;;;;;;15.71;100.00;101200.06;6338735;22;20140;-50
2021/10/10 02:43:27;;;;;;;3.92;1.55;;;;;;;15.70;100.00;101197.75;6338569;22;20022;-51
2021/10/10 02:46:30;;;;;;;4.88;1.45;;;;;;;15.76;100.00;101193.03;6338650;22;20064;-51
2021/10/10 02:49:34;;;;;;;2.70;0.93;;;;;;;15.79;100.00;101197.66;6338632;22;20025;-50
2021/10/10 02:52:37;;;;;;;3.22;1.13;;;;;;;15.76;100.00;101199.44;6338676;22;20527;-50
2021/10/10 02:55:39;;;;;;;5.10;1.52;;;;;;;15.78;100.00;101201.75;6338644;22;20026;-50
2021/10/10 02:58:43;;;;;;;3.53;1.13;;;;;;;15.74;100.00;101195.53;6338889;22;20378;-50
2021/10/10 03:01:46;;;;;;;4.55;2.13;;;;;;;15.72;100.00;101198.06;6338540;22;20021;-50
2021/10/10 03:04:48;;;;;;;1.30;0.43;;;;;;;15.61;100.00;101200.63;6337771;22;20029;-50
2021/10/10 03:07:51;;;;;;;2.08;1.15;;;;;;;15.50;100.00;101191.94;6318757;22;20040;-48
2021/10/10 03:10:54;;;;;;;3.72;1.15;;;;;;;15.41;100.00;101187.13;6338112;22;20099;-48
2021/10/10 03:13:57;;;;;;;0.52;0.40;;;;;;;15.31;100.00;101190.47;6338033;22;20018;-48
2021/10/10 03:17:00;;;;;;;2.22;0.50;;;;;;;15.25;100.00;101186.75;6318788;22;20030;-48
2021/10/10 03:20:05;;;;;;;0.70;0.30;;;;;;;15.02;100.00;101200.28;6338097;22;20025;-47
2021/10/10 03:23:08;;;;;;;0.35;0.35;;;;;;;14.83;100.00;101201.59;6338299;22;20107;-48
2021/10/10 03:26:12;;;;;;;3.00;0.60;;;;;;;14.77;100.00;101192.22;6338195;22;20458;-48
2021/10/10 03:29:15;;;;;;;0.60;0.25;;;;;;;14.61;100.00;101195.41;6338065;22;20465;-48
2021/10/10 03:32:19;;;;;;;0.38;0.20;;;;;;;14.53;100.00;101188.56;6337414;22;20095;-48
2021/10/10 03:35:23;;;;;;;0.50;0.20;;;;;;;14.42;100.00;101183.44;6337926;22;20037;-48
2021/10/10 03:38:25;;;;;;;1.73;0.85;;;;;;;14.37;100.00;101198.09;6338573;22;20080;-48
2021/10/10 03:41:28;;;;;;;0.40;0.30;;;;;;;14.32;100.00;101198.72;6339952;22;20488;-48
2021/10/10 03:44:31;;;;;;;0.57;0.32;;;;;;;14.27;100.00;101204.16;6340296;22;20144;-48
2021/10/10 03:47:34;;;;;;;0.20;0.20;;;;;;;14.16;100.00;101190.59;6339798;22;20042;-48
2021/10/10 03:50:37;;;;;;;0.20;0.20;;;;;;;14.08;100.00;101196.97;6339328;22;20045;-48
2021/10/10 03:54:49;;;;;;;0.30;0.20;;;;;;;14.10;100.00;101200.09;6339794;22;20021;-48
2021/10/10 03:57:02;;;;;;;0.10;0.10;;;;;;;13.96;100.00;101200.72;6340021;22;20029;-48
2021/10/10 04:00:10;;;;;;;0.40;0.25;;;;;;;13.88;100.00;101199.47;6340285;22;20071;-48
2021/10/10 04:03:15;;;;;;;17.33;0.70;;;;;;;13.96;100.00;101200.72;6340257;22;20022;-48
2021/10/10 04:06:18;;;;;;;0.50;0.30;;;;;;;13.98;100.00;101209.44;6340521;22;20041;-48
2021/10/10 04:09:21;;;;;;;0.30;0.10;;;;;;;13.88;100.00;101207.88;6340343;22;20049;-48
2021/10/10 04:12:23;;;;;;;2.67;0.20;;;;;;;13.81;100.00;101199.78;6339850;22;20064;-48
2021/10/10 04:15:27;;;;;;;0.17;0.13;;;;;;;13.71;100.00;101201.03;6339861;22;20034;-48
2021/10/10 04:18:30;;;;;;;0.45;0.35;;;;;;;13.62;100.00;101193.38;6339533;22;20343;-48
2021/10/10 04:21:32;;;;;;;0.20;0.10;;;;;;;13.61;100.00;101192.59;6339904;22;20021;-47
2021/10/10 04:24:35;;;;;;;0.20;0.20;;;;;;;13.79;100.00;101210.66;6339283;22;20394;-47
2021/10/10 04:27:38;;;;;;;0.20;0.20;;;;;;;13.80;100.00;101203.81;6339515;22;20757;-49
2021/10/10 04:30:41;;;;;;;0.10;0.00;;;;;;;13.73;100.00;101204.13;6339497;22;20050;-49
2021/10/10 04:33:44;;;;;;;0.80;0.43;;;;;;;13.72;100.00;101208.16;6339635;22;20026;-47
2021/10/10 04:36:47;;;;;;;0.10;0.00;;;;;;;13.63;100.00;101211.72;6339748;22;20021;-47
2021/10/10 04:39:50;;;;;;;0.95;0.73;;;;;;;13.81;100.00;101210.97;6339937;22;20026;-47
2021/10/10 04:42:53;;;;;;;0.30;0.20;;;;;;;13.87;100.00;101209.91;6339771;22;20327;-47
2021/10/10 04:45:55;;;;;;;0.68;0.20;;;;;;;13.87;100.00;101209.91;6339894;22;20025;-47
2021/10/10 04:48:58;;;;;;;0.10;0.10;;;;;;;13.93;100.00;101224.06;6339781;22;20436;-47
2021/10/10 04:52:02;;;;;;;0.10;0.10;;;;;;;13.94;100.00;101226.41;6339343;22;20578;-47
2021/10/10 04:55:06;;;;;;;0.73;0.32;;;;;;;13.94;100.00;101228.44;6339482;22;20067;-47
2021/10/10 04:58:09;;;;;;;1.88;0.15;;;;;;;13.89;100.00;101229.81;6338989;22;20065;-47
2021/10/10 05:01:12;;;;;;;0.68;0.20;;;;;;;13.87;100.00;101232.31;6339320;22;20038;-47
2021/10/10 05:04:14;;;;;;;0.35;0.20;;;;;;;13.89;100.00;101238.22;6339366;22;20500;-47
2021/10/10 05:07:19;;;;;;;0.10;0.10;;;;;;;13.84;100.00;101229.66;6339532;22;20493;-47
2021/10/10 05:10:22;;;;;;;0.28;0.28;;;;;;;13.90;100.00;101237.00;6339442;22;20053;-47
2021/10/10 05:13:25;;;;;;;1.05;0.60;;;;;;;13.87;100.00;101231.53;6339327;22;20067;-47
2021/10/10 05:16:28;;;;;;;0.10;0.10;;;;;;;13.87;100.00;101225.91;6339199;22;20025;-47
2021/10/10 05:19:31;;;;;;;0.30;0.30;;;;;;;13.85;100.00;101228.41;6339432;22;20021;-47
2021/10/10 05:22:33;;;;;;;3.00;0.57;;;;;;;13.87;100.00;101237.13;6339207;22;20026;-47
2021/10/10 05:25:37;;;;;;;0.20;0.20;;;;;;;13.85;100.00;101234.78;6339288;22;20063;-47
2021/10/10 05:28:40;;;;;;;0.30;0.20;;;;;;;13.84;100.00;101232.47;6338919;22;20389;-46
2021/10/10 05:31:43;;;;;;;0.52;0.20;;;;;;;13.82;100.00;101240.56;6338860;22;20076;-47
2021/10/10 05:34:46;;;;;;;0.25;0.13;;;;;;;13.82;100.00;101234.94;6319834;22;20056;-47
2021/10/10 05:37:49;;;;;;;1.08;0.25;;;;;;;13.79;100.00;101231.06;6339327;22;20079;-47
2021/10/10 05:40:52;;;;;;;0.75;0.40;;;;;;;13.80;100.00;101243.00;6339513;22;20025;-47
2021/10/10 05:43:55;;;;;;;0.20;0.10;;;;;;;13.88;100.00;101235.88;6339099;22;20041;-46
2021/10/10 05:46:57;;;;;;;2.35;0.68;;;;;;;13.85;100.00;101234.00;6339183;22;20022;-47
2021/10/10 05:50:00;;;;;;;3.95;0.22;;;;;;;13.91;100.00;101238.53;6339315;22;20061;-46
2021/10/10 05:53:07;;;;;;;1.05;0.30;;;;;;;14.01;100.00;101236.53;6338995;22;20083;-47
2021/10/10 05:56:10;;;;;;;1.00;0.32;;;;;;;13.96;100.00;101240.72;6338904;22;20047;-47
2021/10/10 05:59:15;;;;;;;0.52;0.15;;;;;;;13.92;100.00;101239.31;6338990;22;20026;-47
2021/10/10 06:02:18;;;;;;;0.10;0.10;;;;;;;13.94;100.00;101243.22;6338196;22;20082;-47
2021/10/10 06:05:21;;;;;;;5.32;0.32;;;;;;;13.93;100.00;101240.84;6338930;22;20026;-47
2021/10/10 06:08:24;;;;;;;3.15;0.75;;;;;;;13.95;100.00;101241.16;6339111;22;20414;-47
2021/10/10 06:11:28;;;;;;;0.52;0.17;;;;;;;14.00;100.00;101238.53;6338899;22;20087;-47
2021/10/10 06:14:32;;;;;;;0.47;0.17;;;;;;;14.02;100.00;101244.47;6339120;22;20018;-46
2021/10/10 06:17:35;;;;;;;1.10;0.13;;;;;;;13.99;100.00;101236.22;6337411;22;20024;-46
2021/10/10 06:20:39;;;;;;;0.75;0.10;;;;;;;13.98;100.00;101235.44;6338792;22;20026;-46
2021/10/10 06:23:41;;;;;;;0.85;0.10;;;;;;;14.01;100.00;101230.94;6338230;22;20063;-47
2021/10/10 06:26:44;;;;;;;0.17;0.10;;;;;;;13.99;100.00;101244.63;6338004;22;20685;-46
2021/10/10 06:29:47;;;;;;;1.65;0.28;;;;;;;14.04;100.00;101241.19;6337516;22;20701;-47
2021/10/10 06:32:50;;;;;;;0.20;0.20;;;;;;;14.07;100.00;101245.88;6338344;22;20106;-47
2021/10/10 06:35:53;;;;;;;1.52;0.13;;;;;;;14.06;100.00;101255.50;6338327;22;20067;-46
2021/10/10 06:38:56;;;;;;;0.32;0.20;;;;;;;14.02;100.00;101252.84;6338581;22;20101;-46
2021/10/10 06:41:59;;;;;;;0.38;0.30;;;;;;;14.11;100.00;101261.28;6337968;22;20049;-47
2021/10/10 06:45:04;;;;;;;1.98;0.40;;;;;;;14.13;100.00;101255.19;6337555;22;20025;-47
2021/10/10 06:48:07;;;;;;;0.38;0.10;;;;;;;14.12;100.00;101254.41;6338394;22;20044;-47
2021/10/10 06:51:10;;;;;;;0.88;0.38;;;;;;;14.10;100.00;101251.31;6338583;22;20030;-49
2021/10/10 06:54:13;;;;;;;0.55;0.50;;;;;;;14.05;100.00;101254.75;6338386;22;20328;-49
2021/10/10 06:57:16;;;;;;;1.40;0.20;;;;;;;13.96;100.00;101256.75;6338323;22;20025;-49
2021/10/10 07:00:19;;;;;;;0.90;0.45;;;;;;;13.89;100.00;101257.03;6337729;22;20080;-48
2021/10/10 07:03:22;;;;;;;0.20;0.20;;;;;;;13.90;100.00;101261.41;6337680;22;20030;-48
2021/10/10 07:06:25;;;;;;;1.20;0.50;;;;;;;13.93;100.00;101268.88;6337481;22;20021;-49
2021/10/10 07:09:28;;;;;;;0.47;0.13;;;;;;;13.96;100.00;101265.16;6338290;22;20406;-49
2021/10/10 07:12:32;;;;;;;3.58;0.55;;;;;;;13.94;100.00;101271.22;6338412;22;20098;-48
2021/10/10 07:15:34;;;;;;;0.57;0.10;;;;;;;13.95;100.00;101269.97;6337870;22;20359;-48
2021/10/10 07:18:44;;;;;;;0.60;0.40;;;;;;;14.08;100.00;101275.41;6338087;22;20343;-49
2021/10/10 07:21:58;;;;;;;1.27;0.30;;;;;;;14.21;100.00;101278.84;6337969;22;20025;-49
2021/10/10 07:25:04;;;;;;;0.10;0.10;;;;;;;14.10;100.00;101272.94;6337055;22;20095;-48
2021/10/10 07:28:08;;;;;;;0.45;0.20;;;;;;;14.05;100.00;101281.97;6338104;22;20064;-48
2021/10/10 07:31:11;;;;;;;0.50;0.10;;;;;;;14.07;100.00;101287.88;6338355;22;20037;-48
2021/10/10 07:34:13;;;;;;;4.40;0.70;;;;;;;14.10;100.00;101290.53;6338133;22;20030;-49
2021/10/10 07:37:17;;;;;;;1.50;0.57;;;;;;;14.12;100.00;101304.09;6337577;22;20303;-49
2021/10/10 07:40:21;;;;;;;0.30;0.20;;;;;;;14.11;100.00;101296.91;6337680;22;20040;-49
2021/10/10 07:43:24;;;;;;;9.85;0.85;;;;;;;14.07;100.00;101302.69;6338074;22;20021;-49
2021/10/10 07:46:33;;;;;;;0.10;0.10;;;;;;;14.05;100.00;101301.56;6337639;22;20113;-48
2021/10/10 07:49:36;;;;;;;0.20;0.08;;;;;;;13.96;100.00;101301.56;6338008;22;20798;-49
2021/10/10 07:52:40;;;;;;;1.45;0.20;;;;;;;13.90;100.00;101303.41;6337548;22;20076;-49
2021/10/10 07:55:43;;;;;;;0.57;0.45;;;;;;;13.92;100.00;101303.72;6338336;22;20025;-49
2021/10/10 07:58:46;;;;;;;0.30;0.20;;;;;;;13.98;100.00;101313.84;6337791;22;20398;-48
2021/10/10 08:01:49;;;;;;;0.95;0.80;;;;;;;14.22;100.00;101323.25;6338136;22;20737;-49
2021/10/10 08:04:53;;;;;;;2.88;0.28;;;;;;;14.46;100.00;101317.84;6337829;22;20099;-48
2021/10/10 08:07:57;;;;;;;2.10;0.82;;;;;;;14.57;100.00;101325.78;6338068;22;20071;-48
2021/10/10 08:11:00;;;;;;;0.85;0.30;;;;;;;14.80;100.00;101331.53;6336954;22;20497;-48
2021/10/10 08:14:02;;;;;;;11.23;0.55;;;;;;;14.95;100.00;101324.03;6338300;22;20500;-49
2021/10/10 08:17:05;;;;;;;1.70;0.70;;;;;;;15.10;100.00;101332.56;6337641;22;20026;-48
2021/10/10 08:20:09;;;;;;;0.38;0.28;;;;;;;15.23;100.00;101329.56;6338392;22;20390;-49
2021/10/10 08:23:12;;;;;;;1.60;0.40;;;;;;;15.37;100.00;101328.91;6337939;22;20366;-49
2021/10/10 08:26:15;;;;;;;0.20;0.20;;;;;;;15.53;100.00;101325.75;6338132;22;20068;-49
2021/10/10 08:29:20;;;;;;;2.60;0.40;;;;;;;15.44;100.00;101335.00;6339492;22;20026;-49
2021/10/10 08:32:23;;;;;;;1.30;0.10;;;;;;;15.39;100.00;101344.03;6320189;22;20072;-49
2021/10/10 08:35:26;;;;;;;1.95;0.77;;;;;;;15.43;100.00;101352.28;6339149;22;20072;-49
2021/10/10 08:38:29;;;;;;;0.10;0.10;;;;;;;15.43;100.00;101349.47;6339849;22;20050;-49
2021/10/10 08:41:36;;;;;;;0.20;0.17;;;;;;;15.50;100.00;101347.16;6338933;22;20026;-49
2021/10/10 08:44:46;;;;;;;0.98;0.20;;;;;;;15.55;100.00;101348.56;6320328;22;20104;-49
2021/10/10 08:47:50;;;;;;;0.65;0.10;;;;;;;15.56;100.00;101344.47;6339443;22;20029;-49
2021/10/10 08:50:55;;;;;;;0.40;0.28;;;;;;;15.60;100.00;101354.28;6339871;22;20335;-49
2021/10/10 08:53:58;;;;;;;0.47;0.13;;;;;;;15.64;100.00;101359.72;6339917;22;20017;-49
2021/10/10 08:57:02;;;;;;;0.52;0.20;;;;;;;15.75;100.00;101354.38;6339343;22;20101;-49
2021/10/10 09:00:10;;;;;;;0.40;0.35;;;;;;;15.76;100.00;101355.94;6320431;22;20025;-49
2021/10/10 09:03:13;;;;;;;0.63;0.20;;;;;;;15.63;100.00;101352.56;6339294;22;20094;-49
2021/10/10 09:06:17;;;;;;;0.30;0.30;;;;;;;15.71;100.00;101353.78;6339266;22;20454;-49
2021/10/10 09:09:31;;;;;;;6.53;0.68;;;;;;;15.77;100.00;101352.66;6320748;22;20033;-48
2021/10/10 09:12:34;;;;;;;1.38;0.40;;;;;;;15.80;100.00;101350.94;6320192;22;20022;-49
2021/10/10 09:15:40;;;;;;;0.43;0.25;;;;;;;15.78;100.00;101342.19;6338547;22;20026;-49
2021/10/10 09:18:44;;;;;;;0.60;0.20;;;;;;;15.63;100.00;101341.34;6339738;22;20098;-49
2021/10/10 09:22:01;;;;;;;0.25;0.00;;;;;;;15.47;100.00;101345.28;6339532;22;20095;-49
2021/10/10 09:25:11;;;;;;;2.05;0.25;;;;;;;15.31;100.00;101344.84;6339502;22;20029;-49
2021/10/10 09:28:20;;;;;;;7.32;0.43;;;;;;;15.14;100.00;101348.00;6339089;22;20041;-49
2021/10/10 09:31:27;;;;;;;2.28;0.17;;;;;;;15.06;100.00;101341.16;6339252;22;20366;-49
2021/10/10 09:34:31;;;;;;;0.30;0.13;;;;;;;14.97;100.00;101357.22;6338749;22;20063;-49
2021/10/10 09:37:49;;;;;;;0.17;0.10;;;;;;;14.82;100.00;101351.47;6320112;22;20098;-50
2021/10/10 09:41:09;;;;;;;0.22;0.10;;;;;;;14.78;100.00;101350.84;6338430;22;20025;-48
2021/10/10 09:47:18;;;;;;;6.40;0.52;;;;;;;14.82;100.00;101361.91;6338550;22;20030;-50
2021/10/10 09:50:27;;;;;;;2.72;1.58;;;;;;;14.88;100.00;101362.84;6339148;22;20068;-50
2021/10/10 09:53:34;;;;;;;4.07;0.30;;;;;;;15.04;100.00;101360.50;6338732;22;20021;-46
2021/10/10 09:56:37;;;;;;;1.35;0.20;;;;;;;15.24;100.00;101364.81;6338529;22;20054;-46
2021/10/10 09:59:40;;;;;;;1.30;0.10;;;;;;;15.63;100.00;101363.81;6338076;22;20057;-47
2021/10/10 10:02:43;;;;;;;1.23;0.50;;;;;;;15.75;100.00;101362.81;6338423;22;20152;-47
2021/10/10 10:05:46;;;;;;;2.13;0.47;;;;;;;15.90;100.00;101367.25;6338595;22;20434;-46
2021/10/10 10:08:49;;;;;;;0.20;0.20;;;;;;;15.89;100.00;101359.31;6339033;22;20390;-46
2021/10/10 10:11:52;;;;;;;0.40;0.10;;;;;;;15.89;100.00;101362.91;6338413;22;20071;-47
2021/10/10 10:15:00;;;;;;;0.13;0.00;;;;;;;15.97;100.00;101360.53;6338790;22;20067;-47
2021/10/10 10:18:04;;;;;;;0.20;0.20;;;;;;;15.65;100.00;101362.09;6338607;22;20328;-47
2021/10/10 10:21:09;;;;;;;0.35;0.10;;;;;;;15.91;100.00;101354.78;6338513;22;20029;-47
2021/10/10 10:24:13;;;;;;;0.75;0.10;;;;;;;15.98;100.00;101353.66;6338369;22;20335;-47
2021/10/10 10:27:17;;;;;;;2.03;0.60;;;;;;;16.08;100.00;101352.34;6338092;22;20021;-47
2021/10/10 10:30:23;;;;;;;0.35;0.30;;;;;;;16.27;100.00;101358.63;6319704;22;20347;-48
2021/10/10 10:33:31;;;;;;;1.05;0.40;;;;;;;16.52;100.00;101367.38;6319678;22;20122;-47
2021/10/10 10:36:59;;;;;;;5.00;0.43;;;;;;;16.66;100.00;101358.22;6338272;22;20347;-47
2021/10/10 10:40:22;;;;;;;1.83;0.30;;;;;;;16.85;100.00;101358.06;6338743;22;20022;-48
2021/10/10 10:43:34;;;;;;;0.57;0.30;;;;;;;16.82;100.00;101370.28;6338404;22;20451;-47
2021/10/10 10:47:01;;;;;;;0.75;0.20;;;;;;;16.71;100.00;101367.25;6338274;22;20072;-47
2021/10/10 10:50:13;;;;;;;1.35;0.32;;;;;;;16.31;100.00;101357.19;6338573;22;20489;-47
2021/10/10 10:53:23;;;;;;;3.25;0.47;;;;;;;16.09;100.00;101356.69;6337985;22;20091;-47
2021/10/10 10:56:33;;;;;;;1.05;0.50;;;;;;;16.03;100.00;101367.03;6338455;22;20021;-47
2021/10/10 10:59:58;;;;;;;0.55;0.15;;;;;;;15.99;100.00;101369.25;6337998;22;20484;-51
2021/10/10 11:03:03;;;;;;;0.90;0.30;;;;;;;16.12;100.00;101352.94;6338269;22;20026;-50
2021/10/10 11:06:06;;;;;;;7.53;0.77;;;;;;;16.34;100.00;101361.88;6338279;22;20030;-50
2021/10/10 11:09:09;;;;;;;0.63;0.22;;;;;;;16.45;100.00;101366.94;6337847;22;20068;-51
2021/10/10 11:12:11;;;;;;;0.30;0.22;;;;;;;16.52;100.00;101372.25;6337968;22;20131;-51
2021/10/10 11:15:14;;;;;;;0.20;0.20;;;;;;;16.36;100.00;101369.81;6338447;22;20363;-47
2021/10/10 11:18:18;;;;;;;1.88;0.13;;;;;;;16.38;100.00;101368.06;6338139;22;20025;-47
2021/10/10 11:21:23;;;;;;;1.90;0.43;;;;;;;16.63;100.00;101373.22;6337662;22;20080;-47
2021/10/10 11:24:26;;;;;;;0.85;0.22;;;;;;;16.77;100.00;101370.94;6337793;22;20091;-47
2021/10/10 11:27:29;;;;;;;5.15;0.13;;;;;;;16.85;100.00;101372.13;6338343;22;20061;-47
2021/10/10 11:30:32;;;;;;;9.50;0.32;;;;;;;17.03;100.00;101371.94;6338551;22;20380;-47
2021/10/10 11:33:37;;;;;;;0.10;0.00;;;;;;;17.11;100.00;101367.50;6338360;22;20025;-47
2021/10/10 11:36:47;;;;;;;0.40;0.17;;;;;;;17.07;100.00;101367.69;6301292;22;20322;-47
2021/10/10 11:39:50;;;;;;;0.20;0.20;;;;;;;16.86;100.00;101366.00;6338540;22;20068;-47
2021/10/10 11:42:56;;;;;;;1.02;0.20;;;;;;;16.71;100.00;101358.78;6338360;22;20026;-47
2021/10/10 11:45:59;;;;;;;2.30;0.22;;;;;;;16.71;100.00;101367.25;6338009;22;20025;-47
2021/10/10 11:49:02;;;;;;;0.10;0.08;;;;;;;16.71;100.00;101361.59;6338157;22;20354;-47
2021/10/10 11:52:06;;;;;;;2.00;0.70;;;;;;;16.69;100.00;101362.09;6337940;22;20102;-47
2021/10/10 11:58:21;;;;;;;0.20;0.20;;;;;;;16.41;100.00;101347.44;6336506;22;20033;-47
2021/10/10 12:01:27;;;;;;;3.22;0.40;;;;;;;16.23;100.00;101364.44;6339575;22;20100;-47
2021/10/10 12:04:30;;;;;;;1.60;0.10;;;;;;;16.16;100.00;101350.72;6339321;22;20063;-48
2021/10/10 12:07:34;;;;;;;3.78;0.60;;;;;;;16.19;100.00;101355.41;6320642;22;20101;-47
2021/10/10 12:10:37;;;;;;;1.85;0.40;;;;;;;16.22;100.00;101351.63;6339230;22;20041;-47
2021/10/10 12:14:00;;;;;;;8.40;0.77;;;;;;;16.45;100.00;101350.84;6339611;22;20022;-47
2021/10/10 12:17:03;;;;;;;5.85;1.27;;;;;;;16.75;100.00;101345.31;6339236;22;20131;-48
2021/10/10 12:20:15;;;;;;;2.95;0.40;;;;;;;16.92;100.00;101338.75;6339882;22;20465;-47
2021/10/10 12:23:17;;;;;;;1.55;1.02;;;;;;;17.19;100.00;101334.88;6339251;22;20673;-47
2021/10/10 12:26:21;;;;;;;0.45;0.45;;;;;;;17.39;100.00;101346.22;6339165;22;20072;-48
2021/10/10 12:29:28;;;;;;;2.08;0.20;;;;;;;17.36;100.00;101333.91;6319926;22;20092;-48
2021/10/10 12:32:32;;;;;;;8.63;0.52;;;;;;;17.51;100.00;101333.13;6339184;22;20021;-48
2021/10/10 12:35:35;;;;;;;1.77;0.17;;;;;;;17.77;100.00;101320.75;6339168;22;20071;-49
2021/10/10 12:38:39;;;;;;;3.10;0.10;;;;;;;17.95;100.00;101316.91;6338517;22;20025;-49
2021/10/10 12:41:42;;;;;;;1.10;0.30;;;;;;;18.03;100.00;101318.03;6338053;22;20028;-48
2021/10/10 12:45:09;;;;;;;2.72;0.17;;;;;;;18.09;100.00;101316.84;6338310;22;20028;-47
2021/10/10 12:48:12;;;;;;;1.90;0.30;;;;;;;18.11;100.00;101319.97;6216258;23;20027;-49
2021/10/10 12:51:16;;;;;;;15.80;1.17;;;;;;;18.02;100.00;101310.84;6216742;23;20390;-50
2021/10/10 12:54:22;;;;;;;2.95;0.10;;;;;;;17.97;100.00;101306.72;6216653;23;20023;-50
2021/10/10 12:57:28;;;;;;;0.68;0.25;;;;;;;18.09;100.00;101294.31;6216307;23;20102;-47
2021/10/10 13:00:31;;;;;;;0.50;0.10;;;;;;;18.25;100.00;101306.28;6215588;23;20024;-47
2021/10/10 13:03:34;;;;;;;3.00;0.50;;;;;;;18.47;100.00;101296.09;6216134;23;20024;-47
2021/10/10 13:06:37;;;;;;;8.98;0.60;;;;;;;18.51;100.00;101295.88;6216099;23;20110;-47
2021/10/10 13:09:41;;;;;;;2.03;0.20;;;;;;;18.39;100.00;101294.13;6215840;23;20230;-47
2021/10/10 13:12:45;;;;;;;2.63;0.38;;;;;;;18.37;100.00;101296.69;6215719;23;20043;-47
2021/10/10 13:15:48;;;;;;;0.95;0.10;;;;;;;18.21;100.00;101294.44;6215421;23;20103;-47
2021/10/10 13:18:50;;;;;;;1.10;0.30;;;;;;;18.11;100.00;101290.97;6215954;23;20069;-47
2021/10/10 13:21:54;;;;;;;0.15;0.08;;;;;;;18.23;100.00;101286.28;6215866;23;20490;-47
2021/10/10 13:24:57;;;;;;;0.20;0.08;;;;;;;18.22;100.00;101295.97;6215709;23;20071;-50
2021/10/10 13:28:02;;;;;;;0.00;0.00;;;;;;;18.14;100.00;101296.44;6215680;23;20103;-50
2021/10/10 13:31:09;;;;;;;0.75;0.20;;;;;;;18.06;100.00;101289.63;6215863;23;20027;-50
2021/10/10 13:34:12;;;;;;;1.00;0.20;;;;;;;18.06;100.00;101292.47;6215337;23;20043;-50
2021/10/10 13:37:15;;;;;;;0.30;0.10;;;;;;;18.15;100.00;101292.31;6215679;23;20114;-50
2021/10/10 13:40:18;;;;;;;4.07;0.40;;;;;;;18.09;100.00;101294.31;6215351;23;20031;-50
2021/10/10 13:43:22;;;;;;;4.60;0.35;;;;;;;18.07;100.00;101294.03;6215408;23;20063;-50
2021/10/10 13:46:25;;;;;;;0.50;0.28;;;;;;;17.87;100.00;101298.84;6215138;23;20397;-49
2021/10/10 13:49:28;;;;;;;0.75;0.17;;;;;;;17.56;100.00;101307.91;6215542;23;20031;-50
2021/10/10 13:52:31;;;;;;;0.10;0.10;;;;;;;17.13;100.00;101303.06;6215370;23;20046;-50
2021/10/10 13:55:33;;;;;;;10.48;0.30;;;;;;;16.74;100.00;101305.16;6215284;23;20079;-50
2021/10/10 13:58:37;;;;;;;2.78;0.65;;;;;;;16.59;100.00;101305.13;6213975;23;20078;-49
2021/10/10 14:01:40;;;;;;;1.38;0.55;;;;;;;16.56;100.00;101300.47;6214594;23;20024;-49
2021/10/10 14:04:44;;;;;;;0.28;0.10;;;;;;;16.59;100.00;101288.25;6213430;23;20076;-47
2021/10/10 14:07:47;;;;;;;3.13;0.85;;;;;;;16.46;100.00;101284.91;6215083;23;20480;-47
2021/10/10 14:10:56;;;;;;;0.85;0.10;;;;;;;16.41;100.00;101279.97;6214726;23;20070;-47
2021/10/10 14:13:59;;;;;;;2.38;0.30;;;;;;;16.40;100.00;101280.41;6215671;23;20092;-47